Time;durP1;ratioP1;P1;durP2;ratioP2;P2;SDS_P1;SDS_P2;PMS_P1;PMS_P2;Temp;Humidity;BMP_temperature;BMP_pressure;BME280_temperature;BME280_humidity;BME280_pressure;Samples;Min_cycle;Max_cycle;Signal;HPM_P1;HPM_P2
2022/04/23 00:02:00;;;;;;;;;41.75;35.25;;;;;18.13;58.35;99588.97;5088258;27;45348;-81
2022/04/23 00:04:25;;;;;;;;;48.50;41.75;;;;;18.09;58.77;99593.34;5078865;28;45457;-88
2022/04/23 00:06:51;;;;;;;;;50.50;41.75;;;;;18.13;58.89;99602.06;5078927;27;45365;-77
2022/04/23 00:09:17;;;;;;;;;46.25;37.25;;;;;18.05;58.63;99586.38;5078881;27;45256;-81
2022/04/23 00:11:43;;;;;;;;;47.75;39.50;;;;;18.07;58.78;99597.72;5078311;27;45365;-83
2022/04/23 00:14:09;;;;;;;;;50.75;40.50;;;;;18.00;59.13;99595.13;5080032;27;45993;-85
2022/04/23 00:16:35;;;;;;;;;50.75;41.25;;;;;17.99;58.97;99593.41;5085342;27;45331;-89
2022/04/23 00:19:01;;;;;;;;;48.00;37.75;;;;;17.99;59.30;99590.78;5084162;27;45256;-80
2022/04/23 00:21:26;;;;;;;;;43.00;37.25;;;;;18.03;59.38;99597.75;5083234;27;45944;-76
2022/04/23 00:23:52;;;;;;;;;37.25;34.25;;;;;18.03;59.26;99593.38;5084822;27;45322;-81
2022/04/23 00:26:18;;;;;;;;;36.25;33.50;;;;;18.04;59.15;99594.25;5080498;27;45452;-80
2022/04/23 00:28:43;;;;;;;;;37.00;29.25;;;;;18.02;59.43;99582.91;5084293;27;45340;-84
2022/04/23 00:31:09;;;;;;;;;30.50;27.75;;;;;18.01;59.01;99582.06;5078825;27;45266;-84
2022/04/23 00:33:38;;;;;;;;;28.50;27.75;;;;;17.98;59.50;99582.06;5088325;27;45341;-77
2022/04/23 00:36:05;;;;;;;;;32.00;25.75;;;;;17.98;59.60;99584.69;5085110;28;45869;-77
2022/04/23 00:38:33;;;;;;;;;25.00;24.25;;;;;17.91;59.42;99570.72;5081526;28;45597;-83
2022/04/23 00:40:59;;;;;;;;;26.00;23.75;;;;;17.89;59.16;99572.47;5082778;27;46096;-80
2022/04/23 00:43:35;;;;;;;;;29.25;24.50;;;;;17.89;59.75;99572.47;5079558;27;45271;-82
2022/04/23 00:46:02;;;;;;;;;24.50;22.25;;;;;17.89;60.12;99571.59;5077435;27;45343;-84
2022/04/23 00:48:29;;;;;;;;;20.75;20.75;;;;;17.82;59.33;99560.28;5078828;27;45174;-81
2022/04/23 00:50:57;;;;;;;;;25.25;24.00;;;;;17.84;59.81;99562.91;5078602;27;45364;-85
2022/04/23 00:53:24;;;;;;;;;26.50;23.75;;;;;17.83;60.03;99569.88;5079251;27;45309;-82
2022/04/23 00:55:53;;;;;;;;;21.75;20.75;;;;;17.81;59.88;99570.78;5082339;27;45233;-78
2022/04/23 00:58:20;;;;;;;;;25.50;23.50;;;;;17.75;60.21;99559.44;5084715;28;45435;-80
2022/04/23 01:00:47;;;;;;;;;28.25;23.50;;;;;17.76;60.11;99561.19;5083351;28;46866;-86
2022/04/23 01:03:13;;;;;;;;;25.00;25.00;;;;;17.70;60.42;99548.16;5087561;28;45174;-90
2022/04/23 01:05:46;;;;;;;;;30.75;25.25;;;;;17.69;59.90;99545.53;5095190;28;45317;-91
2022/04/23 01:08:18;;;;;;;;;27.25;25.50;;;;;17.64;60.21;99546.44;5086373;27;45398;-89
2022/04/23 01:10:44;;;;;;;;;27.00;24.25;;;;;17.66;60.68;99545.53;5086610;27;46062;-77
2022/04/23 01:13:12;;;;;;;;;26.75;26.25;;;;;17.62;60.34;99540.31;5087821;27;45274;-83
2022/04/23 01:15:37;;;;;;;;;29.00;24.75;;;;;17.63;60.36;99542.06;5084718;27;45868;-84
2022/04/23 01:18:04;;;;;;;;;31.25;26.50;;;;;17.51;61.22;99523.81;5081526;28;45574;-77
2022/04/23 01:20:29;;;;;;;;;26.00;24.25;;;;;17.56;60.82;99527.25;5080989;27;45916;-79
2022/04/23 01:22:55;;;;;;;;;27.50;26.25;;;;;17.55;60.82;99537.75;5079937;28;45376;-89
2022/04/23 01:25:22;;;;;;;;;23.25;23.25;;;;;17.49;61.36;99536.00;5077715;27;45372;-88
2022/04/23 01:27:51;;;;;;;;;29.25;28.25;;;;;17.38;61.21;99512.53;5077896;27;45223;-84
2022/04/23 01:30:16;;;;;;;;;24.00;22.50;;;;;17.42;61.36;99523.84;5077327;27;45683;-87
2022/04/23 01:32:42;;;;;;;;;23.25;22.25;;;;;17.49;60.99;99536.00;5079604;27;45242;-84
2022/04/23 01:35:09;;;;;;;;;26.75;24.00;;;;;17.37;61.04;99530.81;5082292;27;45402;-86
2022/04/23 01:37:34;;;;;;;;;25.25;25.00;;;;;17.35;61.51;99524.72;5082128;27;45476;-89
2022/04/23 01:40:00;;;;;;;;;28.75;26.00;;;;;17.33;61.77;99528.22;5079833;28;46819;-90
2022/04/23 01:42:26;;;;;;;;;28.00;23.50;;;;;17.35;61.85;99528.22;5077878;27;45245;-87
2022/04/23 01:44:52;;;;;;;;;26.00;22.50;;;;;17.29;61.63;99520.38;5078000;27;45664;-91
2022/04/23 01:47:18;;;;;;;;;22.00;20.50;;;;;17.36;61.50;99522.13;5078090;27;45490;-88
2022/04/23 01:49:45;;;;;;;;;26.25;23.00;;;;;17.33;61.66;99519.50;5078933;27;46158;-83
2022/04/23 01:52:12;;;;;;;;;29.00;24.25;;;;;17.25;61.82;99510.81;5087325;27;45425;-87
2022/04/23 01:54:38;;;;;;;;;29.50;25.00;;;;;17.25;61.64;99502.97;5085971;27;45306;-84
2022/04/23 01:57:05;;;;;;;;;28.25;25.75;;;;;17.31;61.20;99521.25;5083769;27;45381;-79
2022/04/23 01:59:31;;;;;;;;;27.75;25.25;;;;;17.24;61.79;99511.69;5086881;27;45953;-89
2022/04/23 02:01:57;;;;;;;;;27.00;26.50;;;;;17.19;61.73;99511.72;5079213;27;45741;-90
2022/04/23 02:04:23;;;;;;;;;29.75;26.00;;;;;17.14;62.11;99514.34;5077568;28;45383;-83
2022/04/23 02:06:48;;;;;;;;;29.75;26.75;;;;;17.15;62.01;99509.97;5079263;27;45180;-79
2022/04/23 02:09:14;;;;;;;;;22.75;21.75;;;;;17.10;62.32;99501.28;5083137;27;45518;-91
2022/04/23 02:11:40;;;;;;;;;26.75;24.75;;;;;17.15;62.16;99512.59;5082991;27;45838;-87
2022/04/23 02:14:06;;;;;;;;;26.50;22.50;;;;;17.13;62.01;99507.38;5079255;27;45405;-90
2022/04/23 02:16:32;;;;;;;;;30.00;28.25;;;;;17.12;61.99;99504.75;5078430;27;45310;-86
2022/04/23 02:18:58;;;;;;;;;28.25;25.75;;;;;17.05;62.39;99493.47;5077728;27;46450;-85
2022/04/23 02:21:25;;;;;;;;;31.50;28.00;;;;;17.10;62.56;99511.75;5075519;28;45484;-82
2022/04/23 02:23:53;;;;;;;;;28.25;26.75;;;;;17.05;62.90;99503.91;5083457;27;45431;-81
2022/04/23 02:26:20;;;;;;;;;26.00;24.00;;;;;17.01;62.38;99504.78;5081716;28;45344;-77
2022/04/23 02:28:52;;;;;;;;;27.75;26.00;;;;;16.94;62.61;99492.63;5056846;28;46229;-83
2022/04/23 02:31:18;;;;;;;;;28.00;24.25;;;;;16.92;62.90;99508.25;5056747;28;45330;-86
2022/04/23 02:33:46;;;;;;;;;26.00;25.75;;;;;16.93;63.02;99503.91;5068174;27;45359;-80
2022/04/23 02:36:12;;;;;;;;;26.00;25.75;;;;;16.96;62.66;99502.19;5077486;27;45391;-81
2022/04/23 02:38:41;;;;;;;;;27.50;26.25;;;;;16.97;62.88;99503.03;5086794;27;45455;-77
2022/04/23 02:41:08;;;;;;;;;27.00;26.00;;;;;16.93;62.87;99491.69;5093439;27;45227;-77
2022/04/23 02:43:38;;;;;;;;;26.00;24.00;;;;;16.94;62.80;99497.84;5091641;27;45342;-77
2022/04/23 02:46:07;;;;;;;;;27.25;26.00;;;;;16.94;63.34;99485.63;5099813;27;44787;-76
2022/04/23 02:48:32;;;;;;;;;32.50;28.00;;;;;16.97;63.13;99489.97;5085935;28;46487;-89
2022/04/23 02:50:58;;;;;;;;;21.50;21.25;;;;;16.91;63.12;99474.28;5081608;27;45405;-89
2022/04/23 02:53:24;;;;;;;;;31.25;28.25;;;;;16.94;63.02;99480.41;5079870;27;45373;-87
2022/04/23 02:55:51;;;;;;;;;28.00;24.50;;;;;16.89;63.40;99478.63;5079966;27;45489;-80
2022/04/23 02:58:18;;;;;;;;;32.00;26.25;;;;;16.91;63.21;99480.38;5080470;27;45291;-88
2022/04/23 03:00:44;;;;;;;;;30.25;30.25;;;;;16.85;63.40;99464.72;5083299;28;45784;-80
2022/04/23 03:03:11;;;;;;;;;31.25;26.00;;;;;16.88;64.02;99467.31;5081691;27;45298;-84
2022/04/23 03:05:42;;;;;;;;;26.75;25.75;;;;;16.89;63.97;99465.56;5078979;27;45345;-87
2022/04/23 03:08:09;;;;;;;;;27.50;26.25;;;;;16.85;63.50;99469.94;5077614;27;48070;-79
2022/04/23 03:10:35;;;;;;;;;22.50;21.75;;;;;16.82;63.48;99470.81;5078484;27;45284;-87
2022/04/23 03:13:00;;;;;;;;;28.75;27.00;;;;;16.79;64.06;99462.13;5078367;27;45182;-84
2022/04/23 03:15:26;;;;;;;;;27.00;24.50;;;;;16.76;63.78;99462.97;5080177;27;45623;-79
2022/04/23 03:18:08;;;;;;;;;33.00;28.25;;;;;16.72;63.78;99461.28;5080731;27;45414;-79
2022/04/23 03:20:34;;;;;;;;;29.00;27.00;;;;;16.69;64.17;99459.50;5082484;27;45784;-79
2022/04/23 03:23:00;;;;;;;;;28.25;26.50;;;;;16.65;64.19;99462.13;5081777;28;45319;-79
2022/04/23 03:25:27;;;;;;;;;27.50;26.00;;;;;16.62;64.49;99459.56;5084668;27;45229;-79
2022/04/23 03:27:52;;;;;;;;;27.75;26.50;;;;;16.60;64.94;99456.06;5087008;27;45525;-90
2022/04/23 03:30:20;;;;;;;;;26.75;26.75;;;;;16.48;64.74;99444.75;5084383;27;45243;-81
2022/04/23 03:32:47;;;;;;;;;29.50;26.75;;;;;16.54;64.69;99455.19;5084178;28;45385;-86
2022/04/23 03:35:12;;;;;;;;;28.75;26.50;;;;;16.53;64.82;99453.44;5081017;27;45392;-81
2022/04/23 03:37:39;;;;;;;;;33.00;28.00;;;;;16.49;64.73;99443.88;5079538;27;45522;-88
2022/04/23 03:40:06;;;;;;;;;33.50;28.50;;;;;16.44;64.51;99437.78;5079575;27;45414;-82
2022/04/23 03:42:32;;;;;;;;;26.25;25.25;;;;;16.41;65.27;99448.25;5087989;27;45273;-77
2022/04/23 03:44:58;;;;;;;;;32.00;27.75;;;;;16.24;65.39;99417.78;5088883;27;45292;-78
2022/04/23 03:47:23;;;;;;;;;31.00;28.25;;;;;16.27;65.59;99421.28;5080596;27;45953;-81
2022/04/23 03:49:49;;;;;;;;;25.75;24.25;;;;;16.31;66.18;99436.94;5079450;27;45393;-80
2022/04/23 03:52:15;;;;;;;;;32.50;28.25;;;;;16.29;66.01;99435.22;5080137;27;45401;-78
2022/04/23 03:54:40;;;;;;;;;26.25;24.75;;;;;16.17;65.48;99412.56;5082970;27;45458;-76
2022/04/23 03:57:06;;;;;;;;;27.75;25.50;;;;;16.24;65.87;99423.00;5081929;28;45350;-80
2022/04/23 03:59:32;;;;;;;;;29.50;26.25;;;;;16.21;66.13;99417.78;5082144;28;45368;-87
2022/04/23 04:02:03;;;;;;;;;30.00;29.25;;;;;16.22;66.44;99418.66;5079485;27;45882;-88
2022/04/23 04:04:31;;;;;;;;;28.00;26.25;;;;;16.22;66.43;99413.44;5080160;27;45224;-87
2022/04/23 04:06:58;;;;;;;;;29.00;26.25;;;;;16.26;66.15;99417.78;5079247;28;45396;-90
2022/04/23 04:09:23;;;;;;;;;34.00;26.75;;;;;16.23;66.40;99423.03;5079592;27;45333;-85
2022/04/23 04:12:01;;;;;;;;;28.00;25.50;;;;;16.23;66.39;99428.25;5081199;27;45371;-89
2022/04/23 04:14:34;;;;;;;;;30.50;26.00;;;;;16.14;65.93;99416.06;5085050;27;45344;-85
2022/04/23 04:17:03;;;;;;;;;33.75;32.25;;;;;16.07;66.56;99411.72;5083657;27;45359;-77
2022/04/23 04:19:30;;;;;;;;;24.75;24.25;;;;;16.04;67.01;99409.97;5082798;27;45338;-79
2022/04/23 04:21:58;;;;;;;;;34.50;30.50;;;;;16.03;67.10;99410.84;5081504;27;45321;-80
2022/04/23 04:24:26;;;;;;;;;29.25;27.25;;;;;16.00;67.11;99408.25;5080974;27;45616;-82
2022/04/23 04:26:52;;;;;;;;;27.50;26.25;;;;;16.02;67.09;99416.94;5080369;27;45453;-80
2022/04/23 04:29:18;;;;;;;;;11.50;8.50;;;;;15.98;66.87;99409.13;5081453;27;45841;-83
2022/04/23 04:31:49;;;;;;;;;26.75;25.75;;;;;15.90;66.92;99394.31;5081900;27;45211;-80
2022/04/23 04:34:23;;;;;;;;;28.25;26.00;;;;;16.04;66.74;99419.53;5081186;27;45627;-78
2022/04/23 04:36:50;;;;;;;;;33.00;30.25;;;;;16.04;67.05;99411.72;5080562;27;46735;-85
2022/04/23 04:39:17;;;;;;;;;28.25;24.25;;;;;16.04;66.92;99417.78;5082131;27;45889;-83
2022/04/23 04:41:43;;;;;;;;;25.75;24.50;;;;;15.90;67.30;99399.53;5080114;27;45175;-81
2022/04/23 04:44:09;;;;;;;;;30.75;26.00;;;;;15.96;67.27;99409.09;5078809;27;45222;-82
2022/04/23 04:46:36;;;;;;;;;27.75;25.75;;;;;15.94;67.61;99414.31;5078214;28;46198;-79
2022/04/23 04:49:03;;;;;;;;;26.25;24.00;;;;;15.93;67.13;99420.41;5077714;27;45959;-80
2022/04/23 04:51:29;;;;;;;;;30.50;24.25;;;;;15.91;67.86;99416.06;5078988;28;45332;-78
2022/04/23 04:53:56;;;;;;;;;26.50;24.75;;;;;15.90;67.56;99422.16;5078472;27;45502;-79
2022/04/23 04:56:22;;;;;;;;;30.00;22.50;;;;;15.87;68.22;99424.75;5079709;27;45446;-80
2022/04/23 04:58:48;;;;;;;;;22.75;22.50;;;;;15.87;67.73;99420.44;5082402;27;45336;-76
2022/04/23 05:01:14;;;;;;;;;22.00;21.25;;;;;15.86;67.57;99407.34;5086168;27;45290;-81
2022/04/23 05:03:40;;;;;;;;;23.75;23.00;;;;;15.89;67.92;99412.59;5086352;27;45323;-84
2022/04/23 05:06:09;;;;;;;;;28.25;26.50;;;;;15.91;67.71;99411.72;5084634;27;46590;-77
2022/04/23 05:08:36;;;;;;;;;24.25;21.50;;;;;15.91;67.40;99405.63;5079400;27;45938;-78
2022/04/23 05:11:02;;;;;;;;;28.50;26.00;;;;;15.91;68.05;99409.09;5078418;27;45270;-77
2022/04/23 05:13:28;;;;;;;;;24.75;23.50;;;;;15.90;67.85;99407.34;5078779;27;45181;-83
2022/04/23 05:15:54;;;;;;;;;25.00;23.50;;;;;15.90;68.25;99403.88;5077701;27;45206;-85
2022/04/23 05:18:20;;;;;;;;;24.50;23.50;;;;;15.97;67.56;99410.84;5077277;27;45491;-77
2022/04/23 05:20:45;;;;;;;;;25.25;22.75;;;;;16.00;67.61;99413.47;5078295;27;45258;-78
2022/04/23 05:23:11;;;;;;;;;21.75;21.75;;;;;15.94;67.83;99414.31;5077017;27;45555;-79
2022/04/23 05:25:36;;;;;;;;;27.50;21.75;;;;;15.91;67.34;99416.06;5076932;28;45382;-78
2022/04/23 05:28:02;;;;;;;;;27.75;23.25;;;;;15.83;68.06;99402.97;5078031;27;45271;-76
2022/04/23 05:30:28;;;;;;;;;27.50;26.50;;;;;15.92;67.89;99423.03;5082367;27;45317;-76
2022/04/23 05:32:53;;;;;;;;;22.25;21.00;;;;;15.90;67.90;99411.72;5080822;28;45256;-83
2022/04/23 05:35:19;;;;;;;;;26.00;24.25;;;;;15.94;68.32;99405.59;5077514;28;45376;-78
2022/04/23 05:37:45;;;;;;;;;28.00;24.50;;;;;15.92;67.57;99394.31;5077833;27;45238;-88
2022/04/23 05:40:11;;;;;;;;;27.50;24.00;;;;;15.97;67.49;99404.75;5078700;27;45397;-78
2022/04/23 05:42:37;;;;;;;;;20.75;19.25;;;;;16.04;67.81;99407.34;5078274;27;45548;-77
2022/04/23 05:45:03;;;;;;;;;22.50;22.00;;;;;15.97;67.64;99394.31;5077169;27;45894;-76
2022/04/23 05:47:28;;;;;;;;;25.00;25.00;;;;;16.06;68.12;99408.22;5078600;27;45370;-77
2022/04/23 05:49:54;;;;;;;;;24.25;20.75;;;;;16.00;67.53;99397.78;5083755;27;45173;-78
2022/04/23 05:52:19;;;;;;;;;27.25;23.50;;;;;16.03;67.85;99395.19;5081657;27;45469;-88
2022/04/23 05:54:45;;;;;;;;;26.50;23.50;;;;;15.98;67.84;99391.69;5081612;27;46087;-77
2022/04/23 05:57:11;;;;;;;;;25.75;23.75;;;;;15.98;67.59;99389.09;5078389;27;45374;-84
2022/04/23 05:59:36;;;;;;;;;25.75;21.00;;;;;16.05;68.01;99390.81;5078903;28;45332;-82
2022/04/23 06:02:03;;;;;;;;;24.75;23.25;;;;;15.95;67.19;99370.81;5078228;27;45409;-84
2022/04/23 06:04:29;;;;;;;;;28.75;26.00;;;;;15.98;67.86;99373.44;5075858;28;47052;-83
2022/04/23 06:06:58;;;;;;;;;32.25;26.75;;;;;16.09;67.69;99379.50;5076965;27;45852;-78
2022/04/23 06:09:23;;;;;;;;;27.75;22.75;;;;;16.19;67.26;99388.22;5076832;27;45810;-79
2022/04/23 06:11:49;;;;;;;;;25.00;24.75;;;;;16.16;67.50;99377.75;5078486;27;45287;-82
2022/04/23 06:14:14;;;;;;;;;25.25;25.25;;;;;16.20;67.48;99378.63;5080468;28;45192;-78
2022/04/23 06:16:40;;;;;;;;;22.00;19.25;;;;;16.29;67.41;99389.06;5085781;27;44852;-80
2022/04/23 06:19:05;;;;;;;;;26.50;23.75;;;;;16.28;67.08;99379.47;5081329;27;45351;-79
2022/04/23 06:21:31;;;;;;;;;28.75;24.25;;;;;16.31;66.84;99384.69;5077554;27;45268;-79
2022/04/23 06:23:57;;;;;;;;;30.00;27.25;;;;;16.27;66.88;99389.94;5078047;27;45402;-82
2022/04/23 06:26:22;;;;;;;;;27.25;25.25;;;;;16.32;66.88;99409.06;5079580;27;45501;-78
2022/04/23 06:28:48;;;;;;;;;27.00;26.25;;;;;16.37;67.20;99416.03;5079874;27;45410;-80
2022/04/23 06:31:14;;;;;;;;;29.75;26.25;;;;;16.36;66.98;99416.88;5080087;27;45549;-80
2022/04/23 06:33:42;;;;;;;;;27.00;25.75;;;;;16.35;67.32;99415.19;5080600;27;45342;-81
2022/04/23 06:36:10;;;;;;;;;45.00;38.75;;;;;16.39;66.96;99410.81;5086856;27;45325;-80
2022/04/23 06:38:36;;;;;;;;;25.50;23.25;;;;;16.44;66.84;99416.03;5085926;27;45377;-78
2022/04/23 06:41:01;;;;;;;;;27.25;26.00;;;;;16.47;67.31;99422.13;5082255;27;45358;-80
2022/04/23 06:43:27;;;;;;;;;26.00;22.50;;;;;16.52;66.93;99414.25;5080312;27;45939;-79
2022/04/23 06:45:52;;;;;;;;;26.50;25.00;;;;;16.46;66.53;99391.63;5079683;27;45861;-80
2022/04/23 06:48:18;;;;;;;;;29.50;25.00;;;;;16.58;66.74;99411.63;5079219;27;45394;-77
2022/04/23 06:50:43;;;;;;;;;29.00;25.50;;;;;16.61;66.50;99413.38;5080100;27;45465;-82
2022/04/23 06:53:09;;;;;;;;;26.00;25.75;;;;;16.69;66.02;99422.06;5079212;27;46151;-85
2022/04/23 06:55:35;;;;;;;;;25.75;25.25;;;;;16.69;66.53;99416.84;5077593;28;46536;-83
2022/04/23 06:58:00;;;;;;;;;30.00;26.00;;;;;16.69;66.36;99396.78;5079158;27;45473;-83
2022/04/23 07:00:26;;;;;;;;;29.75;29.50;;;;;16.65;66.36;99395.06;5082776;27;45363;-80
2022/04/23 07:02:52;;;;;;;;;27.75;26.00;;;;;16.81;65.90;99408.06;5088380;27;45531;-82
2022/04/23 07:05:18;;;;;;;;;29.75;25.75;;;;;16.78;65.87;99406.34;5079108;27;45814;-84
2022/04/23 07:07:58;;;;;;;;;34.50;29.25;;;;;16.73;65.74;99388.94;5079697;27;45226;-83
2022/04/23 07:10:26;;;;;;;;;26.25;25.25;;;;;16.88;65.27;99409.81;5079526;28;45380;-83
2022/04/23 07:12:53;;;;;;;;;30.00;28.75;;;;;16.85;65.88;99404.59;5078331;27;45459;-77
2022/04/23 07:15:19;;;;;;;;;30.00;27.75;;;;;16.97;65.62;99398.47;5078317;27;45859;-79
2022/04/23 07:17:47;;;;;;;;;29.50;27.75;;;;;16.93;65.30;99399.34;5077929;28;45567;-79
2022/04/23 07:20:12;;;;;;;;;27.25;25.00;;;;;16.95;65.17;99397.63;5078589;27;45873;-81
2022/04/23 07:22:38;;;;;;;;;31.25;28.25;;;;;17.00;65.23;99393.22;5083736;27;45473;-79
2022/04/23 07:25:06;;;;;;;;;37.75;29.25;;;;;17.10;64.80;99402.78;5088711;27;45365;-81
2022/04/23 07:27:32;;;;;;;;;30.25;26.50;;;;;17.17;65.24;99398.38;5085767;27;45271;-82
2022/04/23 07:29:58;;;;;;;;;25.50;24.25;;;;;17.18;64.42;99389.66;5082335;27;45374;-88
2022/04/23 07:32:25;;;;;;;;;28.25;27.75;;;;;17.22;64.52;99395.75;5078943;27;45427;-78
2022/04/23 07:37:35;;;;;;;;;27.75;27.75;;;;;17.31;64.53;99395.69;5078654;27;45307;-80
2022/04/23 07:40:06;;;;;;;;;32.75;31.75;;;;;17.39;64.46;99398.28;5079248;27;45542;-76
2022/04/23 07:42:31;;;;;;;;;28.25;27.75;;;;;17.42;64.45;99387.78;5077929;28;45594;-78
2022/04/23 07:44:58;;;;;;;;;26.00;25.75;;;;;17.52;64.14;99393.81;5078680;27;45283;-83
2022/04/23 07:47:24;;;;;;;;;29.75;24.50;;;;;17.55;64.26;99388.56;5081724;27;45177;-75
2022/04/23 07:49:50;;;;;;;;;32.25;26.75;;;;;17.56;64.17;99379.84;5077931;28;45402;-79
2022/04/23 07:52:16;;;;;;;;;31.50;27.25;;;;;17.69;65.33;99389.34;5077407;28;46195;-76
2022/04/23 07:54:43;;;;;;;;;29.00;26.25;;;;;17.75;67.58;99394.53;5078599;27;45981;-79
2022/04/23 07:57:10;;;;;;;;;27.50;26.00;;;;;17.79;67.75;99384.91;5078196;28;45442;-79
2022/04/23 07:59:41;;;;;;;;;27.00;24.75;;;;;17.74;66.49;99376.22;5077805;27;45675;-80
2022/04/23 08:02:08;;;;;;;;;22.75;22.50;;;;;17.70;66.09;99358.81;5078726;27;45494;-83
2022/04/23 08:04:34;;;;;;;;;28.50;28.25;;;;;17.85;65.86;99383.97;5076968;27;45858;-78
2022/04/23 08:06:59;;;;;;;;;30.75;26.50;;;;;17.92;68.21;99385.69;5076858;27;45536;-83
2022/04/23 08:09:25;;;;;;;;;25.75;24.75;;;;;17.88;69.38;99369.09;5084592;27;45549;-82
2022/04/23 08:11:51;;;;;;;;;32.25;29.25;;;;;18.01;68.54;99385.63;5086044;27;45417;-84
2022/04/23 08:14:16;;;;;;;;;27.75;26.25;;;;;18.01;66.02;99374.28;5088141;27;45243;-82
2022/04/23 08:16:42;;;;;;;;;29.75;27.50;;;;;18.07;65.44;99377.72;5079937;28;45283;-76
2022/04/23 08:19:08;;;;;;;;;34.00;26.75;;;;;18.00;64.51;99359.44;5082613;27;45611;-81
2022/04/23 08:21:35;;;;;;;;;32.25;28.00;;;;;18.15;64.58;99377.66;5078009;27;45224;-80
2022/04/23 08:24:01;;;;;;;;;29.25;24.50;;;;;18.18;63.86;99375.00;5077394;27;45858;-80
2022/04/23 08:26:26;;;;;;;;;27.50;25.75;;;;;18.26;64.07;99372.28;5077434;27;45287;-81
2022/04/23 08:31:36;;;;;;;;;27.50;27.00;;;;;18.30;63.38;99365.28;5077575;27;45762;-80
2022/04/23 08:34:03;;;;;;;;;30.75;28.00;;;;;18.34;63.31;99369.59;5077627;27;45353;-73
2022/04/23 08:36:31;;;;;;;;;37.75;28.00;;;;;18.35;63.45;99371.34;5077389;28;45417;-80
2022/04/23 08:38:59;;;;;;;;;30.00;27.75;;;;;18.23;63.32;99344.38;5080760;27;45595;-85
2022/04/23 08:41:29;;;;;;;;;30.25;28.50;;;;;18.43;63.35;99366.88;5077590;28;46261;-81
2022/04/23 08:43:57;;;;;;;;;29.50;26.25;;;;;18.38;63.53;99351.22;5078313;27;45395;-83
2022/04/23 08:46:24;;;;;;;;;28.25;27.50;;;;;18.52;63.14;99363.28;5076079;27;45427;-84
2022/04/23 08:48:58;;;;;;;;;32.50;26.25;;;;;18.47;63.35;99351.97;5078562;27;45704;-83
2022/04/23 08:51:26;;;;;;;;;30.50;28.00;;;;;18.54;63.45;99358.91;5080474;27;45342;-84
2022/04/23 08:53:57;;;;;;;;;30.75;28.00;;;;;18.65;63.58;99364.91;5061837;27;45963;-82
2022/04/23 08:56:22;;;;;;;;;31.25;28.75;;;;;18.64;63.37;99357.91;5084248;27;45342;-81
2022/04/23 08:58:48;;;;;;;;;30.75;27.00;;;;;18.76;62.72;99363.91;5101869;27;45269;-84
2022/04/23 09:01:14;;;;;;;;;30.50;27.75;;;;;18.68;63.19;99353.50;5091909;27;46138;-90
2022/04/23 09:03:40;;;;;;;;;33.75;29.50;;;;;18.82;62.22;99369.94;5088826;27;45370;-82
2022/04/23 09:06:05;;;;;;;;;29.25;27.00;;;;;18.84;62.70;99369.91;5083094;27;45500;-80
2022/04/23 09:08:31;;;;;;;;;32.00;29.25;;;;;18.89;62.60;99368.13;5089681;27;45505;-78
2022/04/23 09:10:57;;;;;;;;;27.50;25.50;;;;;18.91;63.44;99368.94;5079772;27;45402;-78
2022/04/23 09:13:29;;;;;;;;;32.50;28.25;;;;;18.85;63.50;99338.41;5083591;27;45923;-79
2022/04/23 09:24:48;;;;;;;;;31.50;28.00;;;;;19.14;62.32;99352.06;5077043;27;45765;-85
2022/04/23 09:27:15;;;;;;;;;31.75;29.25;;;;;19.09;62.72;99328.53;5059728;28;45309;-85
2022/04/23 09:29:56;;;;;;;;;29.50;28.50;;;;;19.30;62.42;99355.34;5076248;28;45366;-85
2022/04/23 09:32:21;;;;;;;;;29.75;27.75;;;;;19.26;62.28;99332.69;5075853;28;46849;-86
2022/04/23 09:35:06;;;;;;;;;31.00;27.00;;;;;19.42;62.11;99355.16;5079071;28;45298;-85
2022/04/23 09:40:21;;;;;;;;;28.50;27.50;;;;;19.55;62.32;99360.22;5085937;28;45263;-84
2022/04/23 09:43:11;;;;;;;;;36.25;30.25;;;;;19.56;62.44;99351.47;5081204;27;47098;-83
2022/04/23 09:45:43;;;;;;;;;30.50;26.50;;;;;19.69;61.87;99360.00;5079259;28;45362;-81
2022/04/23 09:48:12;;;;;;;;;33.00;28.50;;;;;19.69;61.79;99350.38;5078837;27;45458;-84
2022/04/23 09:50:39;;;;;;;;;29.75;27.50;;;;;19.47;61.52;99310.47;5078476;27;45304;-86
2022/04/23 09:53:10;;;;;;;;;27.75;25.00;;;;;19.68;62.10;99327.63;5075787;28;46708;-85
2022/04/23 09:55:36;;;;;;;;;30.50;29.00;;;;;19.60;62.12;99301.50;5077224;27;45450;-82
2022/04/23 09:58:07;;;;;;;;;28.25;25.25;;;;;19.91;61.99;99348.28;5076644;27;45520;-80
2022/04/23 10:00:36;;;;;;;;;26.00;24.00;;;;;20.02;60.90;99352.47;5078140;27;45385;-82
2022/04/23 10:03:06;;;;;;;;;26.25;26.25;;;;;20.02;61.12;99337.59;5077921;27;45529;-81
2022/04/23 10:05:37;;;;;;;;;31.00;28.00;;;;;20.18;60.96;99348.69;5087486;27;45369;-81
2022/04/23 10:08:09;;;;;;;;;27.75;26.50;;;;;20.20;60.23;99341.63;5084899;27;45207;-81
2022/04/23 10:10:42;;;;;;;;;26.25;26.25;;;;;20.25;59.54;99346.78;5096965;27;45371;-88
2022/04/23 10:13:10;;;;;;;;;27.75;26.50;;;;;20.20;60.54;99341.63;5079827;27;45494;-85
2022/04/23 10:15:37;;;;;;;;;29.50;27.50;;;;;20.15;60.01;99332.09;5078184;27;45434;-82
2022/04/23 10:18:07;;;;;;;;;30.25;25.00;;;;;20.30;60.37;99347.59;5080580;27;45444;-79
2022/04/23 10:20:34;;;;;;;;;28.50;26.75;;;;;20.31;60.05;99344.06;5088458;27;45369;-84
2022/04/23 10:23:21;;;;;;;;;31.00;28.25;;;;;20.32;60.49;99342.28;5084909;27;45425;-80
2022/04/23 10:26:01;;;;;;;;;27.00;26.00;;;;;20.28;59.47;99344.13;5080965;28;45405;-80
2022/04/23 10:28:26;;;;;;;;;27.50;23.75;;;;;20.29;60.68;99334.50;5081698;27;45263;-83
2022/04/23 10:31:15;;;;;;;;;29.25;28.00;;;;;20.30;60.06;99342.34;5076785;28;46014;-81
2022/04/23 10:33:44;;;;;;;;;30.50;27.00;;;;;20.30;60.49;99339.72;5079806;27;45552;-87
2022/04/23 10:36:10;;;;;;;;;32.50;28.25;;;;;20.29;61.16;99321.34;5098901;27;45268;-88
2022/04/23 10:38:42;;;;;;;;;26.25;26.25;;;;;20.41;60.77;99339.50;5080521;27;45350;-87
2022/04/23 10:41:11;;;;;;;;;31.50;26.75;;;;;20.42;61.10;99336.84;5075639;27;45253;-87
2022/04/23 10:43:52;;;;;;;;;28.00;26.50;;;;;20.39;59.90;99329.00;5081968;27;45413;-83
2022/04/23 10:46:36;;;;;;;;;29.75;27.75;;;;;20.48;60.84;99334.97;5080578;27;45809;-81
2022/04/23 10:49:23;;;;;;;;;30.50;26.25;;;;;20.39;60.29;99310.63;5080662;27;45383;-83
2022/04/23 10:51:50;;;;;;;;;28.75;26.75;;;;;20.61;60.97;99333.00;5068328;27;45381;-80
2022/04/23 10:54:19;;;;;;;;;21.00;20.25;;;;;20.72;60.72;99342.38;5075682;27;45974;-76
2022/04/23 10:56:49;;;;;;;;;29.00;26.25;;;;;20.82;60.35;99331.69;5085583;27;45917;-80
2022/04/23 10:59:53;;;;;;;;;26.50;22.00;;;;;20.88;60.28;99323.69;5097139;27;45279;-88
2022/04/23 11:02:22;;;;;;;;;30.25;28.25;;;;;20.97;59.64;99333.13;5096476;27;45181;-91
2022/04/23 11:13:31;;;;;;;;;25.50;22.75;;;;;21.38;59.68;99320.78;5086894;27;45300;-84
2022/04/23 11:16:17;;;;;;;;;28.00;27.00;;;;;21.26;60.33;99294.78;5082076;27;45502;-83
2022/04/23 11:18:45;;;;;;;;;29.25;26.00;;;;;21.43;60.35;99324.19;5085037;27;45722;-83
2022/04/23 11:21:14;;;;;;;;;30.50;26.50;;;;;21.37;59.34;99326.09;5079417;27;45389;-84
2022/04/23 11:23:45;;;;;;;;;28.50;26.50;;;;;21.27;59.82;99312.31;5079755;28;45301;-83
2022/04/23 11:26:13;;;;;;;;;26.75;24.75;;;;;21.13;60.08;99302.94;5097184;27;46019;-82
2022/04/23 11:28:40;;;;;;;;;28.50;26.00;;;;;21.09;60.99;99300.44;5088514;27;45230;-83
2022/04/23 11:31:15;;;;;;;;;25.00;23.75;;;;;21.18;60.40;99310.75;5079856;27;45370;-82
2022/04/23 11:34:04;;;;;;;;;30.25;27.75;;;;;21.17;60.78;99304.59;5083599;27;45453;-79
2022/04/23 11:36:37;;;;;;;;;40.25;33.75;;;;;21.21;60.68;99302.78;5081268;27;46390;-81
2022/04/23 11:39:09;;;;;;;;;49.25;41.75;;;;;21.24;60.52;99302.69;5093108;27;46013;-81
2022/04/23 11:41:51;;;;;;;;;58.50;47.25;;;;;21.30;60.43;99296.41;5094243;27;45475;-78
2022/04/23 11:44:19;;;;;;;;;56.50;44.50;;;;;21.29;59.96;99292.94;5081048;27;45392;-79
2022/04/23 11:46:50;;;;;;;;;89.00;85.25;;;;;21.31;59.47;99295.50;5089089;27;45426;-80